西安 の空港の天気 - METARとTAF

西安咸陽国際空港 ( ZLXY / XIY ) - 中国 陝西省西安市
飛行場実況気象(Metar)
観測時間01/20 13:00 CST (01/20 05:00 UTC)
風向・風速不定 1m/s
視程3000m
天気現象煙霧
なし
気温7℃
湿度49%
気圧1022hPa
METARZLXY 200500Z VRB01MPS 3000 HZ NSC 07/M03 Q1022 NOSIG
過去の天気等 Google飛行場航空写真 Wunderground天気予報

過去48時間のMETAR

飛行場予報(TAF)
発表時間: 1/20 03:05 CST (1/19 19:05 UTC)
予報対象時間: 20日8時 CST ~ 21日8時 CST
風向・風速西 3m/s
視程3,000m
天気現象煙霧
なし
TAF ZLXY 191905Z 2000/2024 26003MPS 3000 HZ NSC TX09/2007Z TNM05/23Z